Time;durP1;ratioP1;P1;durP2;ratioP2;P2;SDS_P1;SDS_P2;PMS_P1;PMS_P2;Temp;Humidity;BMP_temperature;BMP_pressure;BME280_temperature;BME280_humidity;BME280_pressure;Samples;Min_cycle;Max_cycle;Signal;HPM_P1;HPM_P2
2022/07/01 00:02:03;;;;;;;;;;;;;;;26.51;60.63;99321.91;4443050;32;20041;-90
2022/07/01 00:04:29;;;;;;;;;;;;;;;26.45;60.62;99317.19;4443376;32;20494;-89
2022/07/01 00:06:54;;;;;;;;;;;;;;;26.37;60.61;99319.84;4442991;32;20033;-88
2022/07/01 00:09:19;;;;;;;;;;;;;;;26.43;60.62;99324.53;4442485;32;20426;-88
2022/07/01 00:11:44;;;;;;;;;;;;;;;26.13;60.61;99322.37;4443103;32;19992;-89
2022/07/01 00:14:10;;;;;;;;;;;;;;;26.26;60.61;99328.94;4442748;32;19977;-90
2022/07/01 00:16:36;;;;;;;;;;;;;;;26.15;60.60;99323.88;4443097;32;19992;-89
2022/07/01 00:19:01;;;;;;;;;;;;;;;26.36;60.61;99320.00;4442966;32;20000;-89
2022/07/01 00:21:26;;;;;;;;;;;;;;;25.92;60.59;99314.75;4442458;32;23401;-89
2022/07/01 00:23:51;;;;;;;;;;;;;;;26.00;60.59;99315.63;4442405;32;19981;-90
2022/07/01 00:26:16;;;;;;;;;;;;;;;25.67;60.58;99321.75;4441598;32;26974;-88
2022/07/01 00:28:42;;;;;;;;;;;;;;;25.80;60.59;99316.84;4442247;32;21053;-86
2022/07/01 00:31:07;;;;;;;;;;;;;;;25.85;60.58;99313.72;4442822;32;20003;-88
2022/07/01 00:33:32;;;;;;;;;;;;;;;25.71;60.58;99320.44;4442813;32;20332;-88
2022/07/01 00:35:58;;;;;;;;;;;;;;;25.57;60.57;99319.16;4442675;32;19981;-88
2022/07/01 00:38:24;;;;;;;;;;;;;;;25.53;60.58;99314.25;4441476;32;20016;-87
2022/07/01 00:40:53;;;;;;;;;;;;;;;25.74;60.58;99312.12;4442070;32;19989;-86
2022/07/01 00:43:18;;;;;;;;;;;;;;;25.51;60.57;99311.75;4442460;32;19991;-87
2022/07/01 00:45:46;;;;;;;;;;;;;;;25.75;60.58;99318.28;4455476;32;27675;-86
2022/07/01 00:48:12;;;;;;;;;;;;;;;25.61;60.58;99319.69;4442033;32;19997;-86
2022/07/01 00:50:37;;;;;;;;;;;;;;;25.59;60.57;99313.66;4442098;32;20028;-87
2022/07/01 00:53:02;;;;;;;;;;;;;;;25.61;60.58;99317.84;4441721;32;20974;-87
2022/07/01 00:55:27;;;;;;;;;;;;;;;25.42;60.56;99310.03;4441775;32;23252;-87
2022/07/01 00:57:52;;;;;;;;;;;;;;;25.31;60.56;99313.75;4441786;32;20028;-87
2022/07/01 01:00:22;;;;;;;;;;;;;;;25.29;60.55;99304.25;4442265;32;20118;-86
2022/07/01 01:02:47;;;;;;;;;;;;;;;25.27;60.55;99315.06;4441981;32;20000;-86
2022/07/01 01:05:12;;;;;;;;;;;;;;;25.30;60.56;99306.75;4442017;32;20329;-86
2022/07/01 01:07:38;;;;;;;;;;;;;;;25.30;60.57;99312.09;4441717;32;20322;-87
2022/07/01 01:10:03;;;;;;;;;;;;;;;25.26;60.56;99310.72;4442224;32;20265;-86
2022/07/01 01:12:28;;;;;;;;;;;;;;;25.08;60.55;99313.41;4455300;32;20034;-87
2022/07/01 01:14:54;;;;;;;;;;;;;;;25.04;60.54;99313.84;4445093;32;19993;-87
2022/07/01 01:17:21;;;;;;;;;;;;;;;25.29;60.55;99317.56;4443134;32;20021;-87
2022/07/01 01:19:47;;;;;;;;;;;;;;;25.27;60.55;99317.72;4442384;32;19985;-86
2022/07/01 01:22:14;;;;;;;;;;;;;;;25.24;60.56;99315.37;4441981;32;20004;-86
2022/07/01 01:24:40;;;;;;;;;;;;;;;25.23;60.56;99318.19;4442331;32;20009;-87
2022/07/01 01:27:05;;;;;;;;;;;;;;;25.29;60.55;99309.56;4441961;32;20271;-85
2022/07/01 01:29:31;;;;;;;;;;;;;;;25.17;60.55;99313.47;4441691;32;20005;-87
2022/07/01 01:31:56;;;;;;;;;;;;;;;25.00;60.54;99317.81;4442126;32;19989;-86
2022/07/01 01:34:21;;;;;;;;;;;;;;;24.93;60.54;99322.03;4442017;32;20005;-87
2022/07/01 01:36:46;;;;;;;;;;;;;;;24.99;60.54;99324.13;4441975;32;20000;-87
2022/07/01 01:41:37;;;;;;;;;;;;;;;24.88;60.53;99332.31;4441061;32;20016;-81
2022/07/01 01:44:02;;;;;;;;;;;;;;;25.01;60.54;99322.13;4454553;32;19988;-82
2022/07/01 01:46:29;;;;;;;;;;;;;;;24.97;60.54;99323.41;4453316;32;20289;-81
2022/07/01 01:48:54;;;;;;;;;;;;;;;24.63;60.52;99317.88;4440567;32;19999;-82
2022/07/01 01:51:19;;;;;;;;;;;;;;;24.61;60.52;99319.88;4454556;32;20020;-82
2022/07/01 01:53:44;;;;;;;;;;;;;;;24.60;60.52;99316.34;4440429;32;19978;-82
2022/07/01 01:56:09;;;;;;;;;;;;;;;24.51;60.51;99313.75;4440082;32;22278;-82
2022/07/01 01:58:35;;;;;;;;;;;;;;;24.72;60.53;99312.50;4454615;32;20033;-82
2022/07/01 02:01:01;;;;;;;;;;;;;;;24.80;60.53;99314.41;4440016;32;19992;-81
2022/07/01 02:03:27;;;;;;;;;;;;;;;24.54;60.52;99308.97;4440571;32;19992;-82
2022/07/01 02:05:52;;;;;;;;;;;;;;;24.42;60.51;99307.50;4454404;32;20029;-82
2022/07/01 02:08:17;;;;;;;;;;;;;;;24.32;60.51;99309.34;4453029;32;20279;-82
2022/07/01 02:10:42;;;;;;;;;;;;;;;24.33;60.50;99316.34;4440198;32;20022;-81
2022/07/01 02:13:08;;;;;;;;;;;;;;;24.28;60.50;99307.94;4440231;32;19995;-81
2022/07/01 02:15:33;;;;;;;;;;;;;;;24.46;60.52;99312.38;4454215;32;19993;-81
2022/07/01 02:17:58;;;;;;;;;;;;;;;24.32;60.51;99310.19;4451818;32;25222;-81
2022/07/01 02:20:23;;;;;;;;;;;;;;;24.34;60.51;99307.37;4440082;32;19977;-81
2022/07/01 02:22:49;;;;;;;;;;;;;;;24.24;60.50;99301.25;4452936;32;20306;-81
2022/07/01 02:25:14;;;;;;;;;;;;;;;24.28;60.50;99305.28;4454293;32;19981;-82
2022/07/01 02:27:40;;;;;;;;;;;;;;;24.37;60.51;99312.41;4453921;32;20013;-82
2022/07/01 02:30:05;;;;;;;;;;;;;;;24.26;60.50;99317.88;4452936;32;20001;-81
2022/07/01 02:32:30;;;;;;;;;;;;;;;24.26;60.50;99321.38;4440115;32;20357;-81
2022/07/01 02:34:56;;;;;;;;;;;;;;;24.23;60.50;99321.69;4439992;32;20005;-81
2022/07/01 02:37:21;;;;;;;;;;;;;;;24.23;60.50;99318.19;4453600;32;25310;-82
2022/07/01 02:39:46;;;;;;;;;;;;;;;24.33;60.50;99321.66;4439467;32;19989;-82
2022/07/01 02:42:23;;;;;;;;;;;;;;;24.13;60.50;99321.75;4453665;32;29368;-83
2022/07/01 02:44:48;;;;;;;;;;;;;;;24.36;60.52;99324.88;4428397;32;20054;-82
2022/07/01 02:47:14;;;;;;;;;;;;;;;24.58;60.52;99323.63;4426663;32;23620;-82
2022/07/01 02:49:39;;;;;;;;;;;;;;;24.28;60.50;99334.53;4453513;32;23845;-82
2022/07/01 02:52:04;;;;;;;;;;;;;;;24.37;60.51;99326.56;4454087;32;19973;-82
2022/07/01 02:54:30;;;;;;;;;;;;;;;24.45;60.52;99334.62;4440030;32;20377;-82
2022/07/01 02:56:55;;;;;;;;;;;;;;;24.30;60.51;99333.44;4440054;32;20000;-82
2022/07/01 02:59:20;;;;;;;;;;;;;;;24.12;60.49;99335.16;4439904;32;20009;-82
2022/07/01 03:01:45;;;;;;;;;;;;;;;24.02;60.49;99335.19;4439140;32;23154;-81
2022/07/01 03:04:10;;;;;;;;;;;;;;;24.02;60.49;99331.69;4438860;32;32516;-81
2022/07/01 03:06:36;;;;;;;;;;;;;;;24.04;60.48;99335.03;4439219;32;23686;-81
2022/07/01 03:09:01;;;;;;;;;;;;;;;24.32;60.50;99336.78;4453862;32;19977;-80
2022/07/01 03:11:26;;;;;;;;;;;;;;;24.15;60.49;99341.03;4453433;32;24173;-81
2022/07/01 03:13:51;;;;;;;;;;;;;;;24.03;60.49;99339.53;4438959;32;28881;-81
2022/07/01 03:16:17;;;;;;;;;;;;;;;23.97;60.48;99341.94;4453474;32;19997;-81
2022/07/01 03:18:42;;;;;;;;;;;;;;;24.27;60.50;99336.38;4451781;32;29732;-81
2022/07/01 03:21:07;;;;;;;;;;;;;;;24.32;60.50;99344.75;4453712;32;19984;-81
2022/07/01 03:23:32;;;;;;;;;;;;;;;24.11;60.49;99346.78;4451567;32;34482;-81
2022/07/01 03:25:57;;;;;;;;;;;;;;;24.11;60.49;99355.59;4438805;32;26497;-81
2022/07/01 03:28:23;;;;;;;;;;;;;;;24.25;60.50;99356.13;4439444;32;19989;-81
2022/07/01 03:30:48;;;;;;;;;;;;;;;24.40;60.51;99362.69;4451666;32;30485;-81
2022/07/01 03:33:13;;;;;;;;;;;;;;;24.47;60.51;99372.56;4453037;32;22245;-81
2022/07/01 03:35:40;;;;;;;;;;;;;;;24.64;60.52;99370.13;4438841;32;26675;-82
2022/07/01 03:38:05;;;;;;;;;;;;;;;24.81;60.52;99371.97;4452166;32;20029;-81
2022/07/01 03:40:33;;;;;;;;;;;;;;;25.03;60.54;99373.41;4439277;32;19993;-81
2022/07/01 03:42:59;;;;;;;;;;;;;;;25.23;60.56;99368.78;4439288;32;20027;-82
2022/07/01 03:45:24;;;;;;;;;;;;;;;25.03;60.54;99370.75;4439196;32;19996;-82
2022/07/01 03:47:50;;;;;;;;;;;;;;;25.09;60.55;99383.50;4439260;32;20012;-82
2022/07/01 03:50:15;;;;;;;;;;;;;;;25.21;60.54;99382.28;4439008;32;20318;-83
2022/07/01 03:52:42;;;;;;;;;;;;;;;25.13;60.54;99390.19;4439042;32;19993;-82
2022/07/01 03:55:07;;;;;;;;;;;;;;;25.13;60.54;99394.69;4439311;32;19997;-83
2022/07/01 03:57:33;;;;;;;;;;;;;;;25.23;60.55;99406.94;4439086;32;20000;-84
2022/07/01 03:59:58;;;;;;;;;;;;;;;25.36;60.55;99396.75;4438672;32;26692;-83
2022/07/01 04:02:23;;;;;;;;;;;;;;;25.46;60.55;99398.50;4438213;32;25615;-82
2022/07/01 04:04:48;;;;;;;;;;;;;;;25.62;60.57;99394.16;4438227;32;30968;-81
2022/07/01 04:07:13;;;;;;;;;;;;;;;25.58;60.56;99391.97;4438470;32;28185;-83
2022/07/01 04:09:39;;;;;;;;;;;;;;;25.65;60.57;99393.00;4438678;32;19966;-84
2022/07/01 04:12:04;;;;;;;;;;;;;;;25.89;60.58;99395.91;4438126;32;24499;-83
2022/07/01 04:14:29;;;;;;;;;;;;;;;26.00;60.58;99394.78;4438938;32;20460;-82
2022/07/01 04:16:54;;;;;;;;;;;;;;;26.05;60.59;99394.34;4438358;32;20032;-83
2022/07/01 04:19:20;;;;;;;;;;;;;;;26.10;60.59;99395.53;4438174;32;22970;-83
2022/07/01 04:24:32;;;;;;;;;;;;;;;26.15;60.59;99387.91;4452938;32;20041;-82
2022/07/01 04:26:57;;;;;;;;;;;;;;;26.31;60.60;99392.50;4438539;32;19981;-82
2022/07/01 04:29:22;;;;;;;;;;;;;;;26.41;60.61;99393.25;4437804;32;29924;-82
2022/07/01 04:31:47;;;;;;;;;;;;;;;26.52;60.61;99384.97;4452007;32;20115;-83
2022/07/01 04:34:13;;;;;;;;;;;;;;;26.70;60.62;99381.38;4451174;32;20003;-83
2022/07/01 04:36:38;;;;;;;;;;;;;;;26.71;60.62;99385.72;4438329;32;19973;-82
2022/07/01 04:39:03;;;;;;;;;;;;;;;26.84;60.62;99378.94;4452668;32;20006;-82
2022/07/01 04:44:13;;;;;;;;;;;;;;;27.14;60.65;99364.16;4454961;32;20016;-83
2022/07/01 04:46:38;;;;;;;;;;;;;;;27.31;60.65;99372.22;4454281;32;28178;-82
2022/07/01 04:49:03;;;;;;;;;;;;;;;27.49;60.66;99367.56;4440784;32;20338;-82
2022/07/01 04:51:28;;;;;;;;;;;;;;;27.75;60.68;99365.59;4454958;32;20005;-81
2022/07/01 04:53:54;;;;;;;;;;;;;;;27.87;60.68;99360.72;4454212;32;28634;-83
2022/07/01 04:56:19;;;;;;;;;;;;;;;27.84;60.68;99361.06;4440840;32;19996;-82
2022/07/01 04:58:44;;;;;;;;;;;;;;;28.01;60.69;99368.06;4440708;32;20295;-82
2022/07/01 05:01:09;;;;;;;;;;;;;;;28.12;60.69;99366.84;4454961;32;20013;-82
2022/07/01 05:03:35;;;;;;;;;;;;;;;28.30;60.70;99361.31;4455053;32;20013;-82
2022/07/01 05:06:00;;;;;;;;;;;;;;;28.41;60.70;99367.16;4440224;32;23910;-82
2022/07/01 05:08:25;;;;;;;;;;;;;;;28.42;60.71;99368.84;4440634;32;20004;-83
2022/07/01 05:10:50;;;;;;;;;;;;;;;28.47;60.71;99365.62;4440658;32;19997;-82
2022/07/01 05:13:16;;;;;;;;;;;;;;;28.71;60.72;99376.25;4440336;32;19981;-83
2022/07/01 05:15:41;;;;;;;;;;;;;;;28.83;60.72;99371.31;4452874;32;24886;-82
2022/07/01 05:23:35;;;;;;;;;;;;;;;29.08;60.74;99379.25;4442683;32;19999;-82
2022/07/01 05:26:00;;;;;;;;;;;;;;;29.29;60.75;99379.44;4440316;32;19995;-83
2022/07/01 05:28:26;;;;;;;;;;;;;;;29.35;60.76;99384.13;4440597;32;20032;-82
2022/07/01 05:30:51;;;;;;;;;;;;;;;29.53;60.76;99386.50;4440406;32;19997;-82
2022/07/01 05:33:17;;;;;;;;;;;;;;;29.60;60.77;99384.81;4453263;32;20423;-83
2022/07/01 05:35:43;;;;;;;;;;;;;;;29.76;60.78;99381.13;4440372;32;20001;-82
2022/07/01 05:38:08;;;;;;;;;;;;;;;30.10;60.79;99386.91;4452652;32;28364;-81
2022/07/01 05:40:33;;;;;;;;;;;;;;;30.32;60.80;99387.00;4439461;32;31595;-83
2022/07/01 05:42:58;;;;;;;;;;;;;;;30.09;60.79;99387.91;4439625;32;31088;-82
2022/07/01 05:45:23;;;;;;;;;;;;;;;30.24;60.80;99388.75;4453968;32;22188;-83
2022/07/01 05:47:49;;;;;;;;;;;;;;;30.32;60.80;99393.22;4440307;32;20013;-83
2022/07/01 05:50:15;;;;;;;;;;;;;;;30.42;60.81;99399.13;4439902;32;20025;-83
2022/07/01 05:52:42;;;;;;;;;;;;;;;30.53;60.82;99397.84;4439382;32;20011;-85
2022/07/01 05:55:07;;;;;;;;;;;;;;;30.74;60.82;99391.72;4440575;32;19991;-86
2022/07/01 05:57:32;;;;;;;;;;;;;;;30.64;60.82;99401.94;4440781;32;19989;-86
2022/07/01 05:59:58;;;;;;;;;;;;;;;30.90;60.83;99402.28;4440920;32;20023;-86
2022/07/01 06:02:23;;;;;;;;;;;;;;;31.00;60.83;99407.37;4440610;32;19993;-86
2022/07/01 06:04:48;;;;;;;;;;;;;;;31.12;60.84;99398.59;4439836;32;26623;-86
2022/07/01 06:07:13;;;;;;;;;;;;;;;31.14;60.84;99404.63;4440390;32;19973;-87
2022/07/01 06:09:39;;;;;;;;;;;;;;;31.28;60.85;99404.81;4439711;32;20046;-87
2022/07/01 06:12:04;;;;;;;;;;;;;;;31.48;60.85;99407.72;4440820;32;20311;-87
2022/07/01 06:14:29;;;;;;;;;;;;;;;31.51;60.87;99412.72;4440389;32;19999;-87
2022/07/01 06:16:55;;;;;;;;;;;;;;;31.69;60.87;99413.06;4440707;32;19996;-88
2022/07/01 06:19:20;;;;;;;;;;;;;;;31.79;60.87;99413.63;4440432;32;20028;-88
2022/07/01 06:21:45;;;;;;;;;;;;;;;31.87;60.88;99412.63;4441070;32;20019;-88
2022/07/01 06:24:11;;;;;;;;;;;;;;;32.00;60.89;99412.75;4440714;32;20270;-88
2022/07/01 06:26:36;;;;;;;;;;;;;;;32.09;60.89;99411.56;4441049;32;20029;-88
2022/07/01 06:29:01;;;;;;;;;;;;;;;32.25;60.90;99419.38;4440982;32;19981;-88
2022/07/01 06:31:26;;;;;;;;;;;;;;;32.32;60.90;99414.03;4440955;32;20423;-88
2022/07/01 06:33:52;;;;;;;;;;;;;;;32.46;60.91;99417.66;4441174;32;20009;-88
2022/07/01 06:36:17;;;;;;;;;;;;;;;32.54;60.91;99421.03;4441318;32;19981;-88
2022/07/01 06:38:42;;;;;;;;;;;;;;;32.69;60.92;99414.69;4454429;32;20033;-89
2022/07/01 06:43:51;;;;;;;;;;;;;;;33.10;60.95;99410.09;4443292;32;20007;-88
2022/07/01 06:46:17;;;;;;;;;;;;;;;33.38;60.95;99404.63;4428253;32;20307;-88
2022/07/01 06:48:42;;;;;;;;;;;;;;;33.57;60.96;99405.66;4441684;32;28397;-89
2022/07/01 06:51:07;;;;;;;;;;;;;;;33.63;60.96;99409.44;4442053;32;19996;-87
2022/07/01 06:53:32;;;;;;;;;;;;;;;33.88;60.99;99407.81;4439968;32;21581;-87
2022/07/01 06:55:58;;;;;;;;;;;;;;;34.07;60.99;99406.13;4454401;32;19973;-88
2022/07/01 06:58:23;;;;;;;;;;;;;;;34.26;61.00;99410.69;4453202;32;19993;-87
2022/07/01 07:00:48;;;;;;;;;;;;;;;34.40;61.00;99415.06;4452608;32;20397;-87
2022/07/01 07:03:13;;;;;;;;;;;;;;;34.39;61.01;99413.41;4454133;32;20231;-87
2022/07/01 07:05:39;;;;;;;;;;;;;;;34.44;61.00;99407.34;4439809;32;19981;-87
2022/07/01 07:08:04;;;;;;;;;;;;;;;34.76;61.02;99409.13;4452761;32;20251;-87
2022/07/01 07:10:29;;;;;;;;;;;;;;;34.74;61.02;99411.22;4454002;32;19991;-86
2022/07/01 07:12:55;;;;;;;;;;;;;;;34.78;61.02;99406.19;4439794;32;20285;-87
2022/07/01 07:15:20;;;;;;;;;;;;;;;34.88;61.03;99403.91;4439770;32;20042;-87
2022/07/01 07:17:45;;;;;;;;;;;;;;;35.08;61.03;99399.25;4439466;32;19985;-87
2022/07/01 07:20:10;;;;;;;;;;;;;;;35.29;61.04;99397.25;4439593;32;20043;-86
2022/07/01 07:22:35;;;;;;;;;;;;;;;35.43;61.06;99398.84;4439742;32;20060;-85
2022/07/01 07:25:01;;;;;;;;;;;;;;;35.54;61.06;99392.75;4452404;32;20031;-87
2022/07/01 07:27:26;;;;;;;;;;;;;;;35.62;61.06;99389.75;4439975;32;20000;-86
2022/07/01 07:29:51;;;;;;;;;;;;;;;35.82;61.06;99386.06;4453593;32;20025;-87
2022/07/01 07:32:17;;;;;;;;;;;;;;;35.92;61.08;99384.53;4439266;32;19989;-87
2022/07/01 07:34:42;;;;;;;;;;;;;;;35.85;61.08;99386.47;4439337;32;20586;-87
2022/07/01 07:37:07;;;;;;;;;;;;;;;36.03;61.09;99383.00;4439030;32;24498;-86
2022/07/01 07:39:32;;;;;;;;;;;;;;;36.20;61.09;99381.38;4452265;32;20071;-87
2022/07/01 07:41:58;;;;;;;;;;;;;;;36.26;61.10;99394.03;4439092;32;19989;-86
2022/07/01 07:44:23;;;;;;;;;;;;;;;36.40;61.11;99386.59;4453598;32;19973;-86
2022/07/01 07:46:48;;;;;;;;;;;;;;;36.27;61.10;99389.44;4439357;32;20001;-87
2022/07/01 07:49:14;;;;;;;;;;;;;;;36.33;61.10;99390.44;4439066;32;20005;-87
2022/07/01 07:51:39;;;;;;;;;;;;;;;36.39;61.11;99386.81;4438993;32;20011;-86
2022/07/01 07:54:04;;;;;;;;;;;;;;;36.61;61.11;99393.44;4438735;32;20008;-87
2022/07/01 07:56:30;;;;;;;;;;;;;;;36.63;61.13;99385.91;4438908;32;19977;-86
2022/07/01 07:58:55;;;;;;;;;;;;;;;36.57;61.11;99394.97;4439253;32;19996;-87
2022/07/01 08:01:20;;;;;;;;;;;;;;;36.83;61.12;99389.25;4438613;32;21628;-86
2022/07/01 08:03:45;;;;;;;;;;;;;;;36.89;61.13;99388.31;4439210;32;19977;-87
2022/07/01 08:06:11;;;;;;;;;;;;;;;36.94;61.13;99394.97;4439197;32;20042;-87
2022/07/01 08:08:37;;;;;;;;;;;;;;;37.05;61.14;99397.72;4439001;32;19997;-87
2022/07/01 08:11:02;;;;;;;;;;;;;;;36.94;61.13;99406.66;4438791;32;21848;-87
2022/07/01 08:13:27;;;;;;;;;;;;;;;37.08;61.13;99397.25;4443810;32;19978;-88
2022/07/01 08:15:53;;;;;;;;;;;;;;;37.29;61.15;99398.69;4439349;32;20062;-87
2022/07/01 08:18:18;;;;;;;;;;;;;;;37.43;61.15;99400.16;4441204;32;19989;-87
2022/07/01 08:20:43;;;;;;;;;;;;;;;37.49;61.16;99401.09;4440864;32;20566;-86
2022/07/01 08:23:08;;;;;;;;;;;;;;;37.43;61.15;99399.31;4440990;32;20235;-87
2022/07/01 08:25:34;;;;;;;;;;;;;;;37.41;61.15;99402.28;4440916;32;19992;-87
2022/07/01 08:27:59;;;;;;;;;;;;;;;37.56;61.16;99388.25;4440583;32;20993;-87
2022/07/01 08:30:24;;;;;;;;;;;;;;;37.79;61.17;99392.91;4427686;32;20314;-87
2022/07/01 08:32:49;;;;;;;;;;;;;;;37.92;61.17;99397.31;4440899;32;20700;-87
2022/07/01 08:35:15;;;;;;;;;;;;;;;37.92;61.17;99397.31;4440776;32;19997;-87
2022/07/01 08:37:40;;;;;;;;;;;;;;;38.15;61.19;99404.66;4454999;32;20024;-87
2022/07/01 08:40:06;;;;;;;;;;;;;;;38.27;61.20;99400.88;4440613;32;23499;-87
2022/07/01 08:42:31;;;;;;;;;;;;;;;38.38;61.20;99388.34;4440677;32;19977;-87
2022/07/01 08:44:56;;;;;;;;;;;;;;;38.58;61.20;99390.69;4440570;32;20632;-87
2022/07/01 08:47:22;;;;;;;;;;;;;;;38.78;61.22;99393.81;4440914;32;20040;-87
2022/07/01 08:49:47;;;;;;;;;;;;;;;38.98;61.22;99396.12;4440143;32;28588;-87
2022/07/01 08:52:12;;;;;;;;;;;;;;;39.14;61.23;99389.97;4440498;32;20023;-88
2022/07/01 08:54:38;;;;;;;;;;;;;;;39.29;61.24;99395.69;4440652;32;19997;-88
2022/07/01 08:57:04;;;;;;;;;;;;;;;39.46;61.25;99395.69;4441103;32;20019;-88
2022/07/01 08:59:30;;;;;;;;;;;;;;;39.52;61.25;99391.22;4440912;32;20350;-88
2022/07/01 09:01:56;;;;;;;;;;;;;;;39.68;61.26;99387.66;4441057;32;19973;-87
2022/07/01 09:04:21;;;;;;;;;;;;;;;39.75;61.27;99385.63;4441016;32;20011;-87
2022/07/01 09:06:47;;;;;;;;;;;;;;;39.88;61.27;99384.44;4440653;32;20310;-88
2022/07/01 09:09:13;;;;;;;;;;;;;;;39.89;61.28;99377.91;4441064;32;20281;-89
2022/07/01 09:11:43;;;;;;;;;;;;;;;39.95;61.28;99378.84;4440982;32;19996;-88
2022/07/01 09:14:09;;;;;;;;;;;;;;;39.94;61.28;99374.44;4440955;32;19989;-88
2022/07/01 09:16:41;;;;;;;;;;;;;;;40.08;61.29;99364.88;4440897;32;19989;-88
2022/07/01 09:19:06;;;;;;;;;;;;;;;40.25;61.29;99367.56;4440642;32;19985;-88
2022/07/01 09:21:31;;;;;;;;;;;;;;;40.31;61.30;99372.84;4440550;32;19988;-87
2022/07/01 09:23:58;;;;;;;;;;;;;;;40.39;61.30;99368.87;4440607;32;20013;-88
2022/07/01 09:26:23;;;;;;;;;;;;;;;40.41;61.30;99363.97;4440643;32;20002;-87
2022/07/01 09:28:52;;;;;;;;;;;;;;;40.54;61.32;99365.53;4440837;32;19992;-88
2022/07/01 09:31:17;;;;;;;;;;;;;;;40.64;61.31;99362.91;4440974;32;19977;-88
2022/07/01 09:33:43;;;;;;;;;;;;;;;40.56;61.31;99355.19;4441018;32;20044;-88
2022/07/01 09:36:08;;;;;;;;;;;;;;;40.58;61.31;99364.75;4442302;32;19989;-88
2022/07/01 09:38:33;;;;;;;;;;;;;;;40.61;61.30;99366.97;4441782;32;20250;-87
2022/07/01 09:41:00;;;;;;;;;;;;;;;40.49;61.30;99369.00;4440250;32;20036;-88
2022/07/01 09:43:26;;;;;;;;;;;;;;;40.53;61.30;99366.59;4440569;32;20061;-87
2022/07/01 09:45:55;;;;;;;;;;;;;;;40.44;61.30;99367.03;4440509;32;19989;-87
2022/07/01 09:48:21;;;;;;;;;;;;;;;40.44;61.30;99372.47;4440236;32;20033;-87
2022/07/01 09:50:46;;;;;;;;;;;;;;;40.32;61.30;99365.47;4440439;32;19985;-87
2022/07/01 09:53:12;;;;;;;;;;;;;;;40.48;61.31;99359.19;4454503;32;19989;-87
2022/07/01 09:55:37;;;;;;;;;;;;;;;40.64;61.32;99360.19;4440401;32;19995;-88
2022/07/01 09:58:02;;;;;;;;;;;;;;;40.73;61.31;99359.50;4440176;32;22033;-89
2022/07/01 10:00:30;;;;;;;;;;;;;;;40.77;61.31;99359.81;4440691;32;19977;-88
2022/07/01 10:02:55;;;;;;;;;;;;;;;40.78;61.33;99358.72;4440772;32;20007;-88
2022/07/01 10:05:20;;;;;;;;;;;;;;;40.73;61.32;99359.50;4440189;32;20021;-88
2022/07/01 10:07:55;;;;;;;;;;;;;;;40.92;61.32;99356.44;4440616;32;20040;-86
2022/07/01 10:10:35;;;;;;;;;;;;;;;41.03;61.34;99355.47;4440482;32;20033;-88
2022/07/01 10:13:01;;;;;;;;;;;;;;;41.25;61.34;99344.53;4454888;32;20032;-88
2022/07/01 10:15:26;;;;;;;;;;;;;;;41.46;61.35;99340.88;4427542;32;19984;-88
2022/07/01 10:17:54;;;;;;;;;;;;;;;41.66;61.36;99337.53;4454595;32;20007;-89
2022/07/01 10:20:23;;;;;;;;;;;;;;;41.75;61.36;99343.31;4440789;32;20328;-88
2022/07/01 10:22:48;;;;;;;;;;;;;;;41.75;61.36;99338.66;4440477;32;19996;-88
2022/07/01 10:25:32;;;;;;;;;;;;;;;41.89;61.36;99336.31;4440531;32;20044;-88
2022/07/01 10:28:24;;;;;;;;;;;;;;;42.05;61.38;99337.22;4453702;32;19981;-88
2022/07/01 10:30:53;;;;;;;;;;;;;;;41.88;61.37;99340.09;4422258;32;20069;-88
2022/07/01 10:33:37;;;;;;;;;;;;;;;41.82;61.36;99343.91;4440168;32;19989;-88
2022/07/01 10:36:03;;;;;;;;;;;;;;;41.69;61.37;99339.72;4455003;32;19997;-87
2022/07/01 10:38:28;;;;;;;;;;;;;;;41.71;61.36;99328.53;4439890;32;19973;-87
2022/07/01 10:40:53;;;;;;;;;;;;;;;41.51;61.35;99329.16;4439161;32;27051;-87
2022/07/01 10:43:34;;;;;;;;;;;;;;;41.78;61.37;99326.38;4452231;32;25431;-87
2022/07/01 10:45:59;;;;;;;;;;;;;;;41.86;61.38;99334.91;4452976;32;19997;-87
2022/07/01 10:48:25;;;;;;;;;;;;;;;41.83;61.37;99329.97;4439703;32;19973;-88
2022/07/01 10:50:50;;;;;;;;;;;;;;;41.71;61.36;99328.53;4440114;32;20017;-87
2022/07/01 10:53:16;;;;;;;;;;;;;;;41.91;61.37;99334.12;4440380;32;19985;-88
2022/07/01 10:55:44;;;;;;;;;;;;;;;42.14;61.38;99331.03;4440112;32;20008;-89
2022/07/01 10:58:09;;;;;;;;;;;;;;;42.25;61.39;99329.97;4427395;32;19989;-88
2022/07/01 11:00:35;;;;;;;;;;;;;;;41.99;61.37;99325.44;4459910;32;20295;-88
2022/07/01 11:03:14;;;;;;;;;;;;;;;41.59;61.35;99324.03;4440064;32;19985;-88
2022/07/01 11:05:39;;;;;;;;;;;;;;;41.53;61.36;99327.00;4439834;32;19981;-87
2022/07/01 11:08:05;;;;;;;;;;;;;;;41.84;61.37;99336.25;4439743;32;20353;-87
2022/07/01 11:10:30;;;;;;;;;;;;;;;41.79;61.37;99331.59;4439606;32;19985;-88
2022/07/01 11:12:55;;;;;;;;;;;;;;;41.82;61.36;99339.25;4440159;32;19984;-89
2022/07/01 11:15:22;;;;;;;;;;;;;;;41.69;61.36;99326.06;4440204;32;20392;-88
2022/07/01 11:17:48;;;;;;;;;;;;;;;41.52;61.35;99328.09;4440089;32;19981;-87
2022/07/01 11:20:13;;;;;;;;;;;;;;;41.27;61.34;99328.69;4426848;32;20028;-87
2022/07/01 11:22:38;;;;;;;;;;;;;;;41.31;61.34;99329.81;4439676;32;19997;-88
2022/07/01 11:25:05;;;;;;;;;;;;;;;41.23;61.34;99333.84;4439733;32;20288;-87
2022/07/01 11:27:30;;;;;;;;;;;;;;;41.30;61.35;99314.50;4439773;32;19987;-88
2022/07/01 11:29:56;;;;;;;;;;;;;;;41.57;61.35;99303.53;4439856;32;19993;-89
2022/07/01 11:32:28;;;;;;;;;;;;;;;41.89;61.37;99309.81;4439673;32;20052;-87
2022/07/01 11:34:53;;;;;;;;;;;;;;;41.97;61.38;99312.03;4439511;32;19989;-88
2022/07/01 11:40:04;;;;;;;;;;;;;;;42.26;61.38;99296.06;4441969;32;20010;-87
2022/07/01 11:42:29;;;;;;;;;;;;;;;42.24;61.38;99292.75;4451325;32;19997;-87
2022/07/01 11:44:54;;;;;;;;;;;;;;;42.39;61.39;99288.47;4437651;32;22983;-88
2022/07/01 11:47:24;;;;;;;;;;;;;;;42.53;61.40;99284.13;4438479;32;20333;-88
2022/07/01 11:49:49;;;;;;;;;;;;;;;42.75;61.42;99276.53;4438267;32;19989;-88
2022/07/01 11:52:15;;;;;;;;;;;;;;;42.91;61.41;99279.31;4441376;32;20342;-88
2022/07/01 11:54:41;;;;;;;;;;;;;;;43.01;61.42;99279.31;4440741;32;20321;-88
2022/07/01 11:57:09;;;;;;;;;;;;;;;42.94;61.42;99274.12;4440631;32;19980;-88
2022/07/01 11:59:38;;;;;;;;;;;;;;;43.09;61.44;99270.59;4453382;32;19974;-86
2022/07/01 12:02:03;;;;;;;;;;;;;;;43.23;61.43;99259.88;4453541;32;20328;-88
2022/07/01 12:04:29;;;;;;;;;;;;;;;43.24;61.43;99256.88;4440391;32;20031;-87
2022/07/01 12:06:54;;;;;;;;;;;;;;;43.35;61.44;99266.78;4440539;32;19981;-88
2022/07/01 12:09:20;;;;;;;;;;;;;;;43.24;61.43;99262.34;4440501;32;19989;-88
2022/07/01 12:11:48;;;;;;;;;;;;;;;43.16;61.43;99257.44;4440605;32;20015;-88
2022/07/01 12:14:21;;;;;;;;;;;;;;;43.19;61.43;99262.34;4440475;32;20333;-87
2022/07/01 12:16:46;;;;;;;;;;;;;;;43.12;61.43;99253.59;4440724;32;20037;-88
2022/07/01 12:19:12;;;;;;;;;;;;;;;43.24;61.43;99251.38;4440805;32;19993;-87
2022/07/01 12:21:47;;;;;;;;;;;;;;;43.32;61.44;99253.63;4440967;32;20348;-88
2022/07/01 12:24:13;;;;;;;;;;;;;;;43.24;61.43;99245.91;4445154;32;19991;-88
2022/07/01 12:27:03;;;;;;;;;;;;;;;43.15;61.43;99245.66;4440632;32;20299;-87
2022/07/01 12:29:29;;;;;;;;;;;;;;;43.22;61.43;99248.09;4440858;32;20600;-88
2022/07/01 12:31:55;;;;;;;;;;;;;;;43.32;61.44;99230.87;4440445;32;20035;-89
2022/07/01 12:34:20;;;;;;;;;;;;;;;43.21;61.43;99232.78;4453569;32;20003;-87
2022/07/01 12:36:49;;;;;;;;;;;;;;;42.86;61.42;99239.87;4440068;32;22489;-89
2022/07/01 12:39:14;;;;;;;;;;;;;;;42.82;61.42;99235.19;4440294;32;20381;-87
2022/07/01 12:41:40;;;;;;;;;;;;;;;42.52;61.41;99233.22;4425919;32;884437;-88
2022/07/01 12:44:06;;;;;;;;;;;;;;;42.48;61.40;99235.69;4441194;32;19984;-88
2022/07/01 12:46:31;;;;;;;;;;;;;;;42.42;61.41;99242.22;4428253;32;20325;-87
2022/07/01 12:48:57;;;;;;;;;;;;;;;42.44;61.40;99233.75;4455115;32;19981;-88
2022/07/01 12:51:32;;;;;;;;;;;;;;;42.59;61.41;99226.44;4441023;32;20008;-89
2022/07/01 12:53:57;;;;;;;;;;;;;;;42.58;61.40;99221.19;4441466;32;20008;-88
2022/07/01 12:56:23;;;;;;;;;;;;;;;42.38;61.40;99212.94;4440816;32;19985;-87
2022/07/01 12:58:49;;;;;;;;;;;;;;;42.31;61.40;99221.38;4441147;32;20007;-87
2022/07/01 13:01:14;;;;;;;;;;;;;;;42.38;61.40;99212.94;4440891;32;20385;-88